Time;durP1;ratioP1;P1;durP2;ratioP2;P2;SDS_P1;SDS_P2;PMS_P1;PMS_P2;Temp;Humidity;BMP_temperature;BMP_pressure;BME280_temperature;BME280_humidity;BME280_pressure;Samples;Min_cycle;Max_cycle;Signal;HPM_P1;HPM_P2
2021/05/16 00:01:32;;;;;;;24.12;15.70;;;;;;;12.26;71.27;99875.86;1719412;83;21054;-72
2021/05/16 00:03:59;;;;;;;22.48;14.78;;;;;;;12.26;71.01;99873.20;1719409;82;21073;-72
2021/05/16 00:06:26;;;;;;;24.30;14.58;;;;;;;12.27;70.86;99876.69;1663831;85;21045;-72
2021/05/16 00:08:53;;;;;;;19.50;13.40;;;;;;;12.28;70.70;99872.56;1719695;82;21070;-72
2021/05/16 00:11:20;;;;;;;20.25;13.30;;;;;;;12.31;70.52;99865.65;1743193;82;22904;-72
2021/05/16 00:13:48;;;;;;;21.33;12.90;;;;;;;12.34;70.32;99856.57;1717263;82;21058;-72
2021/05/16 00:16:15;;;;;;;21.37;13.00;;;;;;;12.36;70.14;99860.42;1726456;82;20960;-72
2021/05/16 00:18:42;;;;;;;21.75;13.20;;;;;;;12.36;69.90;99862.58;1735473;82;21553;-72
2021/05/16 00:21:09;;;;;;;20.25;13.32;;;;;;;12.34;69.74;99859.22;1735252;82;21026;-72
2021/05/16 00:23:35;;;;;;;21.97;13.58;;;;;;;12.30;69.73;99862.66;1735483;82;21780;-72
2021/05/16 00:26:02;;;;;;;20.08;12.85;;;;;;;12.22;69.71;99863.03;1735393;82;21030;-72
2021/05/16 00:28:29;;;;;;;19.23;13.48;;;;;;;12.16;69.78;99866.25;1707927;82;21070;-72
2021/05/16 00:30:57;;;;;;;19.60;12.00;;;;;;;12.06;69.83;99865.44;1706097;84;21496;-72
2021/05/16 00:33:24;;;;;;;16.85;12.35;;;;;;;11.95;69.96;99861.98;1728451;82;21031;-72
2021/05/16 00:35:51;;;;;;;18.37;11.83;;;;;;;11.87;70.08;99868.52;1735316;82;21785;-72
2021/05/16 00:38:18;;;;;;;18.70;10.58;;;;;;;11.78;70.22;99873.30;1735429;82;21023;-72
2021/05/16 00:40:45;;;;;;;16.60;10.65;;;;;;;11.70;70.31;99871.35;1735322;82;20956;-72
2021/05/16 00:43:12;;;;;;;14.15;9.93;;;;;;;11.67;70.44;99872.10;1688051;83;21070;-73
2021/05/16 00:45:39;;;;;;;14.93;9.78;;;;;;;11.64;70.48;99867.10;1705977;84;21640;-72
2021/05/16 00:48:06;;;;;;;15.35;9.70;;;;;;;11.63;70.51;99870.23;1705911;84;21734;-72
2021/05/16 00:50:41;;;;;;;17.05;9.73;;;;;;;11.60;70.61;99867.89;1729765;82;20983;-72
2021/05/16 00:53:09;;;;;;;13.22;8.98;;;;;;;11.58;70.71;99877.77;1735359;82;21003;-72
2021/05/16 00:55:37;;;;;;;16.07;9.03;;;;;;;11.57;70.81;99872.11;1734473;82;21011;-72
2021/05/16 00:58:04;;;;;;;12.82;8.55;;;;;;;11.54;70.76;99872.41;1705968;84;21043;-72
2021/05/16 01:00:39;;;;;;;11.28;7.75;;;;;;;11.51;70.77;99868.72;1685759;84;21735;-72
2021/05/16 01:03:07;;;;;;;11.22;7.62;;;;;;;11.45;70.84;99867.45;1715689;82;21600;-72
2021/05/16 01:05:36;;;;;;;16.07;7.62;;;;;;;11.41;70.94;99873.19;1712491;81;20971;-72
2021/05/16 01:08:06;;;;;;;13.60;7.22;;;;;;;11.37;71.03;99872.61;1705979;83;21050;-72
2021/05/16 01:10:32;;;;;;;12.90;7.10;;;;;;;11.40;71.13;99870.19;1706164;82;21035;-72
2021/05/16 01:12:59;;;;;;;10.35;7.62;;;;;;;11.45;71.27;99871.42;1705946;84;21784;-72
2021/05/16 01:15:27;;;;;;;12.70;7.55;;;;;;;11.47;71.45;99868.64;1711427;83;20986;-72
2021/05/16 01:17:57;;;;;;;11.20;7.33;;;;;;;11.44;71.54;99869.76;1713764;83;20974;-72
2021/05/16 01:20:31;;;;;;;10.72;7.58;;;;;;;11.39;71.42;99872.49;1713923;83;21418;-72
2021/05/16 01:23:04;;;;;;;13.48;7.75;;;;;;;11.34;71.33;99869.41;1715035;82;21106;-72
2021/05/16 01:25:34;;;;;;;15.72;7.30;;;;;;;11.32;71.22;99869.56;1686260;83;21649;-72
2021/05/16 01:28:01;;;;;;;11.10;6.85;;;;;;;11.28;71.18;99875.25;1713888;82;21078;-73
2021/05/16 01:30:28;;;;;;;11.95;7.10;;;;;;;11.23;71.26;99862.95;1713806;82;21011;-73
2021/05/16 01:32:55;;;;;;;12.37;6.75;;;;;;;11.18;71.47;99870.78;1741070;82;21445;-74
2021/05/16 01:35:21;;;;;;;10.70;6.62;;;;;;;11.14;71.59;99871.22;1743446;82;21027;-73
2021/05/16 01:37:49;;;;;;;10.90;6.20;;;;;;;11.14;71.73;99871.22;1712926;82;21818;-73
2021/05/16 01:40:19;;;;;;;10.70;6.12;;;;;;;11.07;71.78;99867.44;1734398;82;20987;-73
2021/05/16 01:42:51;;;;;;;8.88;6.12;;;;;;;11.02;71.94;99868.36;1713831;83;21006;-72
2021/05/16 01:45:23;;;;;;;12.07;6.50;;;;;;;10.96;72.08;99864.92;1713956;83;20959;-72
2021/05/16 01:47:50;;;;;;;9.85;6.15;;;;;;;10.93;72.23;99866.53;1713986;82;21561;-72
2021/05/16 01:50:18;;;;;;;9.55;6.20;;;;;;;10.89;72.39;99861.50;1713947;82;21761;-72
2021/05/16 01:52:45;;;;;;;10.40;5.87;;;;;;;10.86;72.49;99862.27;1713673;83;20990;-72
2021/05/16 01:55:16;;;;;;;8.83;6.03;;;;;;;10.81;72.58;99858.73;1713845;83;21019;-72
2021/05/16 01:57:43;;;;;;;9.05;6.05;;;;;;;10.78;72.69;99864.26;1714738;82;21053;-72
2021/05/16 02:00:31;;;;;;;9.85;6.05;;;;;;;10.76;72.75;99862.25;1686376;83;21027;-72
2021/05/16 02:02:58;;;;;;;9.10;5.80;;;;;;;10.75;72.85;99867.67;1733156;82;21785;-72
2021/05/16 02:05:27;;;;;;;9.63;5.55;;;;;;;10.73;72.87;99869.61;1738983;82;20991;-72
2021/05/16 02:07:53;;;;;;;8.65;5.55;;;;;;;10.69;72.87;99874.31;1743436;82;21480;-72
2021/05/16 02:10:22;;;;;;;8.98;5.47;;;;;;;10.69;72.96;99876.95;1743446;82;21086;-72
2021/05/16 02:12:51;;;;;;;8.63;4.90;;;;;;;10.70;73.09;99873.83;1738813;81;21029;-73
2021/05/16 02:15:18;;;;;;;8.58;5.47;;;;;;;10.68;73.05;99873.97;1725161;82;22395;-73
2021/05/16 02:17:44;;;;;;;9.98;5.28;;;;;;;10.65;73.01;99872.09;1719339;83;21493;-72
2021/05/16 02:20:16;;;;;;;6.72;4.78;;;;;;;10.61;73.09;99875.47;1719726;83;22388;-72
2021/05/16 02:22:44;;;;;;;7.10;4.92;;;;;;;10.58;73.24;99877.06;1719246;83;21011;-72
2021/05/16 02:25:14;;;;;;;8.15;4.83;;;;;;;10.55;73.35;99872.89;1743345;82;21564;-72
2021/05/16 02:27:40;;;;;;;7.72;5.08;;;;;;;10.51;73.46;99878.07;1749290;82;22395;-72
2021/05/16 02:30:09;;;;;;;6.47;4.90;;;;;;;10.49;73.55;99879.18;1749342;82;20963;-72
2021/05/16 02:32:38;;;;;;;7.20;5.15;;;;;;;10.47;73.66;99884.60;1723823;82;21073;-72
2021/05/16 02:35:09;;;;;;;7.00;4.75;;;;;;;10.48;73.79;99886.75;1719094;82;22473;-72
2021/05/16 02:37:41;;;;;;;10.80;4.90;;;;;;;10.47;73.91;99878.48;1718848;83;21046;-73
2021/05/16 02:40:09;;;;;;;8.03;4.55;;;;;;;10.45;73.95;99877.30;1719586;82;21786;-72
2021/05/16 02:42:36;;;;;;;8.00;4.78;;;;;;;10.44;73.95;99881.41;1719304;83;21540;-72
2021/05/16 02:45:06;;;;;;;7.78;4.70;;;;;;;10.45;74.02;99879.11;1719529;83;21046;-72
2021/05/16 02:47:32;;;;;;;7.00;4.53;;;;;;;10.49;74.09;99877.86;1719646;82;21579;-71
2021/05/16 02:49:59;;;;;;;9.50;4.50;;;;;;;10.51;74.08;99886.48;1740570;82;20998;-72
2021/05/16 02:52:26;;;;;;;6.85;4.30;;;;;;;10.52;74.12;99885.54;1719411;83;21757;-72
2021/05/16 02:54:54;;;;;;;8.00;4.40;;;;;;;10.52;74.15;99881.58;1691452;83;21002;-72
2021/05/16 02:57:22;;;;;;;6.75;4.37;;;;;;;10.52;74.21;99881.09;1719286;83;21042;-72
2021/05/16 02:59:50;;;;;;;6.25;4.15;;;;;;;10.52;74.25;99878.94;1719508;83;21548;-72
2021/05/16 03:02:18;;;;;;;6.50;4.40;;;;;;;10.53;74.38;99880.12;1719376;83;21014;-72
2021/05/16 03:04:45;;;;;;;6.35;4.50;;;;;;;10.55;74.46;99880.81;1722372;82;21775;-72
2021/05/16 03:07:12;;;;;;;7.03;4.67;;;;;;;10.58;74.60;99886.30;1749146;82;21046;-72
2021/05/16 03:09:41;;;;;;;5.80;4.03;;;;;;;10.60;74.62;99889.64;1749259;82;21015;-72
2021/05/16 03:12:09;;;;;;;8.03;4.17;;;;;;;10.60;74.67;99883.88;1749272;82;21580;-73
2021/05/16 03:14:38;;;;;;;6.05;4.30;;;;;;;10.65;74.70;99887.45;1749114;81;21168;-72
2021/05/16 03:17:05;;;;;;;6.15;3.85;;;;;;;10.71;74.81;99897.48;1730932;82;21793;-74
2021/05/16 03:19:32;;;;;;;5.62;3.75;;;;;;;10.76;74.87;99887.83;1719381;83;21102;-73
2021/05/16 03:22:01;;;;;;;6.30;3.58;;;;;;;10.80;74.97;99887.41;1720292;82;21117;-73
2021/05/16 03:24:29;;;;;;;9.60;4.25;;;;;;;10.84;75.07;99886.19;1719325;83;21097;-73
2021/05/16 03:26:56;;;;;;;6.33;3.67;;;;;;;10.89;75.17;99886.59;1719632;83;20969;-73
2021/05/16 03:29:24;;;;;;;5.40;3.90;;;;;;;10.95;75.16;99887.04;1719407;83;21751;-74
2021/05/16 03:31:51;;;;;;;6.42;3.62;;;;;;;11.00;75.17;99883.48;1719870;82;21050;-74
2021/05/16 03:34:17;;;;;;;5.17;3.90;;;;;;;11.05;75.34;99882.12;1722531;82;20982;-73
2021/05/16 03:36:44;;;;;;;6.45;3.75;;;;;;;11.09;75.44;99887.95;1746533;81;20998;-74
2021/05/16 03:39:11;;;;;;;6.60;3.95;;;;;;;11.15;75.54;99890.06;1741197;82;21041;-73
2021/05/16 03:41:37;;;;;;;5.05;3.50;;;;;;;11.20;75.56;99889.18;1719575;83;21745;-73
2021/05/16 03:44:05;;;;;;;6.05;3.83;;;;;;;11.28;75.70;99893.75;1719587;83;21461;-72
2021/05/16 03:46:32;;;;;;;6.40;3.65;;;;;;;11.34;75.79;99901.98;1719796;82;21496;-72
2021/05/16 03:48:59;;;;;;;6.30;3.70;;;;;;;11.42;75.91;99902.61;1742988;82;20993;-72
2021/05/16 03:51:27;;;;;;;5.72;3.75;;;;;;;11.52;76.04;99901.30;1749421;82;20999;-72
2021/05/16 03:53:53;;;;;;;7.15;3.80;;;;;;;11.60;76.04;99904.08;1749289;82;22454;-72
2021/05/16 03:56:20;;;;;;;7.08;3.85;;;;;;;11.71;76.11;99911.88;1710474;83;21026;-74
2021/05/16 03:58:47;;;;;;;8.85;3.70;;;;;;;11.80;76.14;99908.41;1719755;83;20966;-73
2021/05/16 04:01:15;;;;;;;6.00;3.45;;;;;;;11.90;76.24;99907.91;1721343;80;21038;-73
2021/05/16 04:03:42;;;;;;;7.17;3.70;;;;;;;12.02;76.24;99905.44;1742122;80;21039;-73
2021/05/16 04:06:09;;;;;;;5.47;3.45;;;;;;;12.15;76.24;99905.62;1749254;82;21650;-73
2021/05/16 04:08:35;;;;;;;7.12;3.98;;;;;;;12.28;76.26;99906.16;1749414;82;21042;-73
2021/05/16 04:11:02;;;;;;;6.35;4.08;;;;;;;12.44;76.23;99910.33;1749408;82;21022;-73
2021/05/16 04:13:29;;;;;;;6.72;3.55;;;;;;;12.57;76.09;99897.61;1738099;82;20986;-72
2021/05/16 04:15:56;;;;;;;6.28;3.25;;;;;;;12.72;76.06;99903.73;1724910;82;20987;-73
2021/05/16 04:18:24;;;;;;;6.45;3.83;;;;;;;12.82;75.88;99897.41;1749370;82;22331;-73
2021/05/16 04:20:52;;;;;;;6.58;3.50;;;;;;;12.98;75.96;99902.56;1749265;82;21571;-73
2021/05/16 04:23:18;;;;;;;6.40;3.30;;;;;;;13.10;75.86;99902.20;1749360;80;21010;-73
2021/05/16 04:25:46;;;;;;;6.05;3.45;;;;;;;13.24;75.76;99893.44;1749260;82;21441;-73
2021/05/16 04:28:14;;;;;;;4.92;3.45;;;;;;;13.38;75.75;99900.86;1749484;82;21018;-73
2021/05/16 04:30:40;;;;;;;5.45;3.75;;;;;;;13.49;75.64;99901.95;1741996;82;21792;-73
2021/05/16 04:33:07;;;;;;;12.23;6.40;;;;;;;13.64;75.44;99903.59;1749281;82;20970;-73
2021/05/16 04:35:34;;;;;;;10.98;9.05;;;;;;;13.79;75.06;99901.20;1749402;82;21137;-73
2021/05/16 04:38:00;;;;;;;10.85;8.75;;;;;;;13.93;74.51;99899.34;1749338;82;21560;-73
2021/05/16 04:40:28;;;;;;;11.83;7.80;;;;;;;14.07;73.86;99895.27;1749430;82;20999;-73
2021/05/16 04:42:55;;;;;;;10.40;7.70;;;;;;;14.23;73.36;99898.88;1749440;82;21508;-72
2021/05/16 04:45:22;;;;;;;10.65;6.62;;;;;;;14.42;72.87;99899.15;1748289;81;21027;-72
2021/05/16 04:47:49;;;;;;;9.13;5.67;;;;;;;14.56;72.30;99896.41;1733804;82;21014;-72
2021/05/16 04:50:18;;;;;;;8.08;4.53;;;;;;;14.70;71.74;99895.83;1719575;83;20994;-72
2021/05/16 04:52:46;;;;;;;9.20;4.85;;;;;;;14.83;70.99;99899.36;1719522;83;20982;-72
2021/05/16 04:55:13;;;;;;;6.58;4.50;;;;;;;14.96;70.46;99901.09;1743113;82;21774;-72
2021/05/16 04:57:40;;;;;;;7.08;4.10;;;;;;;15.08;69.93;99902.45;1719428;83;21117;-73
2021/05/16 05:00:08;;;;;;;5.55;3.83;;;;;;;15.21;69.31;99897.98;1719629;82;21014;-72
2021/05/16 05:02:36;;;;;;;5.97;3.05;;;;;;;15.35;68.64;99908.50;1719331;82;21070;-73
2021/05/16 05:05:04;;;;;;;4.78;3.10;;;;;;;15.48;68.16;99908.84;1737458;82;21031;-73
2021/05/16 05:07:32;;;;;;;7.15;3.70;;;;;;;15.65;67.93;99909.72;1749423;82;21809;-72
2021/05/16 05:10:00;;;;;;;5.45;3.15;;;;;;;15.81;67.38;99909.70;1749135;82;21082;-72
2021/05/16 05:12:26;;;;;;;5.90;3.55;;;;;;;15.96;66.71;99905.38;1721759;82;20986;-72
2021/05/16 05:14:52;;;;;;;4.42;2.77;;;;;;;16.09;66.12;99896.03;1739488;82;21053;-72
2021/05/16 05:17:19;;;;;;;8.90;3.60;;;;;;;16.20;65.97;99894.34;1719365;83;21023;-72
2021/05/16 05:19:46;;;;;;;5.72;3.70;;;;;;;16.30;65.92;99890.98;1719487;83;22583;-72
2021/05/16 05:22:12;;;;;;;5.58;3.80;;;;;;;16.42;65.98;99895.48;1739677;82;21026;-73
2021/05/16 05:24:39;;;;;;;6.08;3.58;;;;;;;16.54;66.18;99898.94;1749240;82;20935;-72
2021/05/16 05:27:06;;;;;;;6.62;3.50;;;;;;;16.66;66.38;99890.55;1749404;82;21018;-72
2021/05/16 05:29:32;;;;;;;5.67;3.92;;;;;;;16.76;66.48;99893.87;1740521;82;21018;-72
2021/05/16 05:31:59;;;;;;;6.40;4.12;;;;;;;16.84;66.31;99893.34;1719575;83;21764;-73
2021/05/16 05:34:26;;;;;;;7.70;5.10;;;;;;;16.93;66.45;99898.14;1719478;82;21042;-73
2021/05/16 05:36:53;;;;;;;5.55;4.35;;;;;;;17.00;66.10;99903.11;1719453;83;21022;-73
2021/05/16 05:39:20;;;;;;;6.08;3.90;;;;;;;17.05;65.67;99899.91;1741091;82;21057;-72
2021/05/16 05:41:47;;;;;;;6.10;3.00;;;;;;;17.13;65.16;99905.20;1749310;82;20998;-72
2021/05/16 05:44:14;;;;;;;4.55;2.30;;;;;;;17.21;64.88;99907.83;1747287;82;21784;-72
2021/05/16 05:46:41;;;;;;;4.17;2.58;;;;;;;17.28;63.91;99910.64;1724491;82;21607;-72
2021/05/16 05:49:08;;;;;;;4.30;2.30;;;;;;;17.34;63.15;99911.25;1749444;82;20964;-73
2021/05/16 05:51:34;;;;;;;4.90;2.37;;;;;;;17.42;62.61;99911.20;1749348;80;20990;-72
2021/05/16 05:54:01;;;;;;;3.30;2.20;;;;;;;17.52;61.86;99913.63;1749261;82;21544;-72
2021/05/16 05:56:28;;;;;;;6.30;2.40;;;;;;;17.61;61.14;99917.91;1725662;82;22469;-72
2021/05/16 05:58:54;;;;;;;3.40;2.47;;;;;;;17.63;60.44;99919.38;1719303;83;21600;-72
2021/05/16 06:01:20;;;;;;;5.60;2.10;;;;;;;17.67;60.30;99919.88;1719498;82;21066;-72
2021/05/16 06:03:48;;;;;;;3.65;2.15;;;;;;;17.71;59.43;99922.03;1719643;82;20970;-72
2021/05/16 06:06:15;;;;;;;4.85;2.92;;;;;;;17.78;58.98;99933.34;1719572;82;21035;-72
2021/05/16 06:08:42;;;;;;;5.55;2.77;;;;;;;17.83;58.79;99925.10;1719419;83;21773;-72
2021/05/16 06:11:09;;;;;;;7.12;2.80;;;;;;;17.91;58.97;99932.23;1692816;83;21016;-72
2021/05/16 06:13:36;;;;;;;7.65;2.62;;;;;;;17.99;59.22;99933.50;1723654;82;21057;-72
2021/05/16 06:16:03;;;;;;;5.17;2.60;;;;;;;18.06;58.65;99935.78;1719414;82;21179;-72
2021/05/16 06:18:30;;;;;;;3.92;2.35;;;;;;;18.14;58.48;99932.17;1719555;83;21053;-72
2021/05/16 06:20:56;;;;;;;3.40;2.33;;;;;;;18.23;58.05;99921.73;1719558;82;21774;-72
2021/05/16 06:23:32;;;;;;;3.72;1.92;;;;;;;18.24;57.20;99924.76;1719410;83;21587;-72
2021/05/16 06:25:51;;;;;;;5.45;1.60;;;;;;;18.29;56.72;99919.17;1717892;83;21575;-72
2021/05/16 06:28:17;;;;;;;3.85;1.85;;;;;;;18.35;55.86;99917.63;1719607;83;21011;-72
2021/05/16 06:30:43;;;;;;;3.80;1.98;;;;;;;18.43;55.61;99919.36;1720512;82;21034;-72
2021/05/16 06:33:10;;;;;;;2.95;1.92;;;;;;;18.51;55.47;99917.42;1719435;83;21753;-72
2021/05/16 06:35:36;;;;;;;1.85;1.30;;;;;;;18.64;55.51;99914.12;1738854;82;21498;-72
2021/05/16 06:38:03;;;;;;;2.62;1.40;;;;;;;18.79;54.71;99912.28;1749241;82;20999;-72
2021/05/16 06:40:32;;;;;;;2.47;1.25;;;;;;;18.93;53.96;99907.13;1749250;82;21165;-72
2021/05/16 06:42:59;;;;;;;2.10;1.30;;;;;;;18.98;52.63;99915.41;1749270;82;20982;-72
2021/05/16 06:45:26;;;;;;;3.20;1.30;;;;;;;18.97;52.26;99913.23;1746379;81;23042;-72
2021/05/16 06:47:52;;;;;;;2.08;1.27;;;;;;;18.97;51.96;99913.23;1720589;82;21058;-72
2021/05/16 06:50:19;;;;;;;2.27;1.20;;;;;;;18.96;52.39;99911.58;1740150;82;20958;-72
2021/05/16 06:52:45;;;;;;;1.70;1.27;;;;;;;18.96;52.01;99912.09;1749325;80;21473;-72
2021/05/16 06:55:13;;;;;;;2.12;1.05;;;;;;;18.93;51.94;99909.28;1749399;82;20974;-72
2021/05/16 06:57:42;;;;;;;3.00;1.12;;;;;;;18.85;51.69;99910.21;1724307;82;21772;-72
2021/05/16 07:00:11;;;;;;;2.42;1.42;;;;;;;18.80;51.73;99903.23;1719438;83;20998;-72
2021/05/16 07:02:38;;;;;;;4.00;2.60;;;;;;;18.79;51.97;99905.59;1725506;82;21449;-72
2021/05/16 07:05:06;;;;;;;2.98;1.82;;;;;;;18.81;51.91;99904.89;1719718;82;21085;-72
2021/05/16 07:07:33;;;;;;;2.60;1.52;;;;;;;18.92;51.35;99909.48;1714078;83;21584;-72
2021/05/16 07:09:59;;;;;;;2.42;1.60;;;;;;;18.98;50.65;99909.54;1719435;83;21773;-72
2021/05/16 07:12:25;;;;;;;3.62;1.22;;;;;;;19.06;51.08;99916.64;1719473;83;21010;-72
2021/05/16 07:14:52;;;;;;;2.47;0.70;;;;;;;19.16;51.08;99924.69;1692713;83;21038;-72
2021/05/16 07:17:19;;;;;;;2.27;0.75;;;;;;;19.28;50.06;99911.63;1709087;83;21002;-72
2021/05/16 07:19:45;;;;;;;2.08;0.85;;;;;;;19.40;49.71;99906.12;1706917;82;21473;-72
2021/05/16 07:22:13;;;;;;;4.47;0.80;;;;;;;19.58;50.69;99907.02;1724951;81;21727;-72
2021/05/16 07:24:39;;;;;;;0.90;0.70;;;;;;;19.78;49.00;99904.53;1735213;82;20976;-72
2021/05/16 07:27:06;;;;;;;5.80;0.90;;;;;;;19.94;49.13;99905.60;1735377;82;21478;-73
2021/05/16 07:29:32;;;;;;;4.30;0.98;;;;;;;20.10;48.50;99906.36;1735334;82;21043;-72
2021/05/16 07:31:59;;;;;;;3.42;0.85;;;;;;;20.19;48.32;99910.03;1735281;82;20987;-72
2021/05/16 07:34:25;;;;;;;1.25;0.80;;;;;;;20.27;48.05;99907.20;1715234;82;21772;-72
2021/05/16 07:36:52;;;;;;;2.75;1.05;;;;;;;20.33;47.43;99900.22;1706779;82;21118;-72
2021/05/16 07:39:18;;;;;;;2.95;1.22;;;;;;;20.28;46.90;99898.65;1706093;82;20951;-72
2021/05/16 07:41:44;;;;;;;1.90;1.07;;;;;;;20.16;46.75;99905.55;1705995;84;21576;-72
2021/05/16 07:44:12;;;;;;;0.82;0.80;;;;;;;20.18;46.75;99909.72;1705822;84;21102;-72
2021/05/16 07:46:38;;;;;;;1.52;0.90;;;;;;;20.24;46.93;99911.60;1705895;83;21764;-72
2021/05/16 07:49:05;;;;;;;3.60;1.00;;;;;;;20.30;46.69;99901.95;1705780;84;21450;-72
2021/05/16 07:51:31;;;;;;;2.55;1.00;;;;;;;20.32;45.83;99907.95;1706069;84;21031;-72
2021/05/16 07:53:58;;;;;;;0.78;0.78;;;;;;;20.34;46.21;99903.21;1706950;82;21038;-72
2021/05/16 07:56:24;;;;;;;1.67;0.80;;;;;;;20.45;46.72;99904.03;1705949;83;21071;-72
2021/05/16 07:58:51;;;;;;;1.37;0.90;;;;;;;20.61;46.74;99900.72;1705864;84;21737;-72
2021/05/16 08:01:17;;;;;;;2.52;1.12;;;;;;;20.72;44.90;99904.18;1705814;84;21503;-72
2021/05/16 08:03:46;;;;;;;1.60;0.95;;;;;;;20.74;44.96;99901.61;1696493;82;21054;-72
2021/05/16 08:06:12;;;;;;;3.45;1.00;;;;;;;20.81;45.40;99902.98;1712051;82;21054;-73
2021/05/16 08:08:39;;;;;;;1.27;0.90;;;;;;;20.95;45.08;99893.16;1733166;82;21008;-73
2021/05/16 08:11:05;;;;;;;1.22;0.70;;;;;;;21.09;44.78;99894.84;1718909;82;21720;-73
2021/05/16 08:13:32;;;;;;;3.10;0.70;;;;;;;21.21;44.97;99895.90;1735070;82;21002;-73
2021/05/16 08:15:59;;;;;;;2.02;0.65;;;;;;;21.31;44.12;99894.20;1735133;81;20979;-72
2021/05/16 08:18:26;;;;;;;2.37;0.78;;;;;;;21.32;44.02;99895.86;1735182;82;21062;-72
2021/05/16 08:20:53;;;;;;;1.75;0.90;;;;;;;21.39;44.08;99896.70;1716343;82;21575;-73
2021/05/16 08:23:19;;;;;;;3.95;1.30;;;;;;;21.42;43.35;99893.60;1706032;84;22351;-72
2021/05/16 08:25:46;;;;;;;2.02;1.00;;;;;;;21.43;43.52;99881.85;1705924;82;20995;-73
2021/05/16 08:28:13;;;;;;;1.57;0.80;;;;;;;21.47;44.23;99887.63;1706925;82;21038;-72
2021/05/16 08:30:39;;;;;;;2.45;0.50;;;;;;;21.63;43.97;99892.11;1705885;84;20999;-72
2021/05/16 08:33:06;;;;;;;2.65;0.50;;;;;;;21.76;41.35;99893.97;1706094;84;21034;-72
2021/05/16 08:35:33;;;;;;;1.77;0.60;;;;;;;21.81;40.96;99896.88;1706078;84;21768;-72
2021/05/16 08:38:00;;;;;;;1.27;0.70;;;;;;;21.85;42.03;99890.56;1705946;82;20960;-73
2021/05/16 08:40:26;;;;;;;1.95;0.50;;;;;;;21.94;41.92;99894.18;1706404;82;21010;-72
2021/05/16 08:42:54;;;;;;;1.47;0.72;;;;;;;22.05;41.65;99892.72;1706054;84;21631;-72
2021/05/16 08:45:20;;;;;;;1.65;0.60;;;;;;;22.23;41.79;99895.64;1706958;82;21086;-72
2021/05/16 08:47:47;;;;;;;1.35;0.60;;;;;;;22.38;40.87;99891.35;1706062;84;21824;-73
2021/05/16 08:50:16;;;;;;;2.98;0.65;;;;;;;22.44;40.05;99881.63;1708532;82;21098;-72
2021/05/16 08:52:42;;;;;;;0.98;0.70;;;;;;;22.48;40.77;99880.98;1735361;82;21007;-72
2021/05/16 08:55:10;;;;;;;5.30;0.75;;;;;;;22.62;41.23;99879.09;1735303;82;21509;-72
2021/05/16 08:57:37;;;;;;;3.22;0.60;;;;;;;22.79;40.75;99872.72;1735334;82;21015;-72
2021/05/16 09:00:14;;;;;;;1.27;0.60;;;;;;;22.94;40.14;99862.52;1735317;82;21735;-72
2021/05/16 09:03:01;;;;;;;1.80;0.50;;;;;;;23.01;38.82;99851.20;1721834;82;21046;-72
2021/05/16 09:05:38;;;;;;;0.85;0.50;;;;;;;22.93;38.86;99856.83;1686079;82;21039;-72
2021/05/16 09:08:17;;;;;;;1.82;0.50;;;;;;;22.93;38.93;99860.05;1705899;84;21486;-72
2021/05/16 09:10:54;;;;;;;2.45;0.70;;;;;;;23.00;39.28;99848.72;1706024;84;21062;-72
2021/05/16 09:13:24;;;;;;;1.55;0.50;;;;;;;23.12;39.84;99853.72;1705940;84;21809;-72
2021/05/16 09:16:12;;;;;;;2.35;0.70;;;;;;;23.24;39.62;99848.47;1706075;84;21074;-72
2021/05/16 09:18:51;;;;;;;1.62;0.60;;;;;;;23.30;38.97;99839.53;1712226;82;20957;-72
2021/05/16 09:21:29;;;;;;;2.55;0.80;;;;;;;23.34;39.31;99839.38;1715574;82;20985;-72
2021/05/16 09:24:06;;;;;;;0.88;0.57;;;;;;;23.38;39.04;99845.48;1711349;83;20978;-72
2021/05/16 09:26:58;;;;;;;1.22;0.50;;;;;;;23.35;38.66;99842.38;1711232;82;21791;-72
2021/05/16 09:29:43;;;;;;;1.85;0.50;;;;;;;23.33;38.80;99843.13;1687684;83;21060;-72
2021/05/16 09:32:09;;;;;;;0.98;0.50;;;;;;;23.38;39.94;99844.14;1711447;83;21440;-72
2021/05/16 09:34:40;;;;;;;0.55;0.50;;;;;;;23.47;38.64;99842.00;1711296;83;20981;-72
2021/05/16 09:37:07;;;;;;;2.72;0.42;;;;;;;23.50;38.70;99841.55;1726703;82;20974;-72
2021/05/16 09:39:38;;;;;;;1.47;0.40;;;;;;;23.39;37.73;99839.56;1739951;82;22269;-72
2021/05/16 09:42:12;;;;;;;3.05;0.50;;;;;;;23.33;38.29;99831.82;1740863;81;21093;-72
2021/05/16 09:44:45;;;;;;;0.75;0.50;;;;;;;23.37;38.48;99837.62;1738849;82;20969;-72
2021/05/16 09:47:23;;;;;;;0.82;0.50;;;;;;;23.52;39.44;99839.45;1740978;82;21049;-72
2021/05/16 09:49:53;;;;;;;1.07;0.50;;;;;;;23.70;38.55;99836.86;1740794;81;20993;-72
2021/05/16 09:52:34;;;;;;;1.45;0.50;;;;;;;23.75;38.77;99830.00;1740851;82;21691;-72
2021/05/16 09:55:09;;;;;;;0.90;0.60;;;;;;;23.83;39.11;99830.52;1740464;81;21564;-72
2021/05/16 09:57:42;;;;;;;2.47;0.53;;;;;;;24.04;38.99;99828.48;1740992;81;20966;-72
2021/05/16 10:00:14;;;;;;;2.33;0.57;;;;;;;24.28;38.63;99827.06;1720372;82;21010;-72
2021/05/16 10:02:41;;;;;;;0.70;0.50;;;;;;;24.51;38.22;99828.28;1711819;82;21077;-72
2021/05/16 10:05:10;;;;;;;0.93;0.40;;;;;;;24.61;36.56;99826.40;1722279;82;21769;-72
2021/05/16 10:07:38;;;;;;;1.85;0.50;;;;;;;24.59;36.74;99833.91;1730244;81;21029;-73
2021/05/16 10:10:07;;;;;;;0.70;0.50;;;;;;;24.57;36.28;99823.34;1718203;82;21077;-72
2021/05/16 10:12:35;;;;;;;3.40;0.53;;;;;;;24.60;35.53;99820.70;1740688;82;21041;-73
2021/05/16 10:15:23;;;;;;;1.95;0.60;;;;;;;24.62;33.81;99808.65;1712239;82;21689;-72
2021/05/16 10:17:52;;;;;;;1.65;0.57;;;;;;;24.52;33.83;99815.94;1749824;81;21772;-72
2021/05/16 10:20:22;;;;;;;1.27;0.50;;;;;;;24.37;34.27;99815.48;1757553;81;20988;-73
2021/05/16 10:22:57;;;;;;;2.47;0.78;;;;;;;24.41;34.21;99820.71;1757461;80;20945;-73
2021/05/16 10:25:43;;;;;;;0.95;0.50;;;;;;;24.48;34.66;99810.67;1734238;81;21571;-73
2021/05/16 10:28:15;;;;;;;4.87;0.45;;;;;;;24.49;33.23;99810.97;1746728;81;21465;-72
2021/05/16 10:30:41;;;;;;;0.40;0.40;;;;;;;24.49;33.87;99812.84;1753670;81;21799;-72
2021/05/16 10:33:28;;;;;;;0.53;0.50;;;;;;;24.66;34.41;99806.31;1726999;83;20985;-72
2021/05/16 10:35:55;;;;;;;0.55;0.50;;;;;;;24.83;33.84;99804.63;1669721;84;21639;-73
2021/05/16 10:38:35;;;;;;;0.95;0.60;;;;;;;25.01;34.68;99804.59;1673039;84;21066;-73
2021/05/16 10:41:25;;;;;;;0.80;0.40;;;;;;;25.22;33.93;99799.73;1658895;86;21114;-73
2021/05/16 10:44:28;;;;;;;1.32;0.55;;;;;;;25.37;32.44;99799.58;1686893;82;21569;-72
2021/05/16 10:46:54;;;;;;;1.20;0.40;;;;;;;25.36;32.31;99802.52;1709183;82;21038;-72
2021/05/16 10:49:27;;;;;;;0.75;0.50;;;;;;;25.38;32.30;99794.50;1714690;82;21151;-73
2021/05/16 10:51:54;;;;;;;5.75;3.42;;;;;;;25.43;31.30;99788.91;1709397;83;21042;-72
2021/05/16 10:54:31;;;;;;;12.33;8.20;;;;;;;25.57;32.07;99792.49;1709208;84;21034;-73
2021/05/16 10:57:19;;;;;;;1.87;1.17;;;;;;;25.77;31.92;99780.54;1704764;84;21800;-73
2021/05/16 10:59:46;;;;;;;1.00;0.80;;;;;;;25.92;32.35;99780.36;1709275;84;21015;-72
2021/05/16 11:03:08;;;;;;;5.35;0.57;;;;;;;26.19;32.69;99779.34;1720758;82;21047;-73
2021/05/16 11:05:51;;;;;;;4.75;0.78;;;;;;;26.42;30.85;99782.54;1709244;82;21568;-73
2021/05/16 11:08:23;;;;;;;2.00;0.80;;;;;;;26.50;31.36;99771.87;1709088;82;21010;-72
2021/05/16 11:10:51;;;;;;;0.85;0.62;;;;;;;26.67;32.25;99769.23;1709418;82;22401;-71
2021/05/16 11:13:31;;;;;;;0.93;0.50;;;;;;;26.88;31.27;99771.78;1708912;84;21019;-71
2021/05/16 11:15:58;;;;;;;0.72;0.53;;;;;;;27.06;31.19;99764.83;1707868;84;21042;-71
2021/05/16 11:18:24;;;;;;;2.00;0.75;;;;;;;27.18;31.09;99751.19;1683925;84;21102;-70
2021/05/16 11:20:54;;;;;;;1.22;0.82;;;;;;;27.13;29.44;99753.84;1705332;83;21091;-71
2021/05/16 11:23:24;;;;;;;2.15;0.60;;;;;;;27.10;30.94;99753.23;1711501;82;21746;-71
2021/05/16 11:26:04;;;;;;;3.27;0.60;;;;;;;27.10;30.24;99749.70;1700731;83;21501;-71
2021/05/16 11:28:34;;;;;;;1.27;0.50;;;;;;;27.03;30.84;99749.88;1700999;83;21091;-71
2021/05/16 11:31:19;;;;;;;0.85;0.50;;;;;;;27.04;31.10;99746.64;1700985;83;21078;-71
2021/05/16 11:33:48;;;;;;;3.00;0.47;;;;;;;27.04;30.76;99745.28;1700943;83;21521;-71
2021/05/16 11:36:17;;;;;;;4.78;4.30;;;;;;;26.93;30.21;99741.55;1701664;83;21760;-71
2021/05/16 11:38:48;;;;;;;3.83;2.85;;;;;;;26.88;30.75;99741.44;1700796;84;21103;-71
2021/05/16 11:41:39;;;;;;;8.70;3.15;;;;;;;26.86;30.82;99740.87;1700838;84;21022;-71